createdAt,value
2019-04-04T00:00:23.457Z,6.84
2019-04-04T00:01:23.415Z,6.81
2019-04-04T00:02:23.374Z,6.79
2019-04-04T00:03:23.333Z,6.82
2019-04-04T00:04:23.295Z,6.69
2019-04-04T00:05:25.608Z,6.63
2019-04-04T00:06:23.209Z,6.72
2019-04-04T00:07:23.169Z,6.67
2019-04-04T00:08:23.129Z,6.79
2019-04-04T00:09:23.088Z,6.85
2019-04-04T00:10:23.047Z,6.85
2019-04-04T00:11:23.006Z,6.87
2019-04-04T00:12:22.962Z,6.84
2019-04-04T00:13:22.922Z,6.89
2019-04-04T00:14:22.881Z,6.81
2019-04-04T00:15:22.854Z,6.87
2019-04-04T00:16:22.801Z,6.82
2019-04-04T00:17:23.358Z,6.85
2019-04-04T00:18:22.716Z,6.82
2019-04-04T00:19:22.677Z,6.87
2019-04-04T00:20:22.637Z,6.82
2019-04-04T00:21:22.592Z,6.74
2019-04-04T00:22:22.550Z,6.75
2019-04-04T00:23:22.509Z,6.64
2019-04-04T00:24:22.468Z,6.67
2019-04-04T00:25:22.470Z,6.56
2019-04-04T00:26:22.387Z,6.54
2019-04-04T00:27:22.344Z,6.41
2019-04-04T00:28:22.328Z,6.38
2019-04-04T00:29:22.287Z,6.33
2019-04-04T00:30:22.216Z,6.36
2019-04-04T00:31:22.177Z,6.45
2019-04-04T00:32:22.139Z,6.45
2019-04-04T00:33:22.100Z,6.41
2019-04-04T00:34:22.060Z,6.49
2019-04-04T00:35:22.014Z,6.45
2019-04-04T00:36:21.977Z,6.36
2019-04-04T00:37:21.929Z,6.30
2019-04-04T00:38:21.897Z,6.33
2019-04-04T00:39:21.850Z,6.39
2019-04-04T00:40:21.806Z,6.35
2019-04-04T00:41:21.769Z,6.33
2019-04-04T00:42:21.721Z,6.35
2019-04-04T00:43:21.682Z,6.28
2019-04-04T00:44:23.076Z,6.44
2019-04-04T00:45:21.605Z,6.46
2019-04-04T00:46:21.561Z,6.46
2019-04-04T00:47:21.519Z,6.39
2019-04-04T00:48:21.477Z,6.38
2019-04-04T00:49:21.435Z,6.48
2019-04-04T00:50:21.396Z,6.38
2019-04-04T00:51:21.356Z,6.38
2019-04-04T00:52:21.313Z,6.39
2019-04-04T00:53:21.273Z,6.38
2019-04-04T00:54:21.226Z,6.36
2019-04-04T00:55:21.187Z,6.38
2019-04-04T00:56:21.147Z,6.31
2019-04-04T00:57:21.109Z,6.36
2019-04-04T00:58:21.408Z,6.33
2019-04-04T00:59:22.931Z,6.31
2019-04-04T01:00:22.041Z,6.31
2019-04-04T01:01:20.940Z,6.39
2019-04-04T01:02:20.895Z,6.39
2019-04-04T01:03:20.856Z,6.46
2019-04-04T01:04:20.818Z,6.44
2019-04-04T01:05:20.777Z,6.39
2019-04-04T01:06:20.737Z,6.36
2019-04-04T01:07:20.693Z,6.46
2019-04-04T01:08:20.650Z,6.42
2019-04-04T01:09:20.606Z,6.44
2019-04-04T01:10:20.571Z,6.48
2019-04-04T01:11:20.980Z,6.54
2019-04-04T01:12:21.723Z,6.67
2019-04-04T01:13:21.197Z,6.72
2019-04-04T01:14:20.399Z,6.67
2019-04-04T01:15:20.364Z,6.74
2019-04-04T01:16:20.323Z,6.69
2019-04-04T01:17:20.286Z,6.74
2019-04-04T01:18:20.242Z,6.78
2019-04-04T01:19:20.198Z,6.72
2019-04-04T01:20:20.292Z,6.67
2019-04-04T01:21:20.163Z,6.63
2019-04-04T01:22:20.071Z,6.59
2019-04-04T01:23:20.034Z,6.62
2019-04-04T01:24:19.991Z,6.57
2019-04-04T01:25:19.954Z,6.67
2019-04-04T01:26:19.904Z,6.62
2019-04-04T01:27:19.864Z,6.70
2019-04-04T01:28:19.825Z,6.74
2019-04-04T01:29:19.788Z,6.77
2019-04-04T01:30:19.744Z,6.63
2019-04-04T01:31:19.702Z,6.63
2019-04-04T01:32:19.659Z,6.60
2019-04-04T01:33:20.082Z,6.59
2019-04-04T01:34:20.809Z,6.56
2019-04-04T01:35:22.520Z,6.52
2019-04-04T01:36:19.498Z,6.42
2019-04-04T01:37:19.457Z,6.45
2019-04-04T01:38:19.439Z,6.49
2019-04-04T01:39:19.371Z,6.41
2019-04-04T01:40:19.327Z,6.42
2019-04-04T01:41:19.285Z,6.49
2019-04-04T01:42:19.249Z,6.44
2019-04-04T01:43:19.206Z,6.59
2019-04-04T01:44:19.163Z,6.64
2019-04-04T01:45:19.120Z,6.59
2019-04-04T01:46:19.082Z,6.54
2019-04-04T01:47:19.039Z,6.62
2019-04-04T01:48:19.364Z,6.63
2019-04-04T01:49:19.143Z,6.69
2019-04-04T01:50:18.917Z,6.75
2019-04-04T01:51:18.875Z,6.77
2019-04-04T01:52:18.833Z,6.77
2019-04-04T01:53:18.790Z,6.74
2019-04-04T01:54:18.750Z,6.60
2019-04-04T01:55:18.708Z,6.67
2019-04-04T01:56:18.671Z,6.66
2019-04-04T01:57:18.630Z,6.63
2019-04-04T01:58:18.584Z,6.64
2019-04-04T01:59:18.544Z,6.72
2019-04-04T02:00:18.504Z,6.69
2019-04-04T02:01:18.465Z,6.69
2019-04-04T02:02:18.623Z,6.77
2019-04-04T02:03:18.382Z,6.70
2019-04-04T02:04:18.339Z,6.69
2019-04-04T02:05:18.294Z,6.63
2019-04-04T02:06:18.253Z,6.63
2019-04-04T02:07:18.214Z,6.70
2019-04-04T02:08:18.175Z,6.67
2019-04-04T02:09:18.135Z,6.75
2019-04-04T02:10:18.092Z,6.77
2019-04-04T02:11:18.050Z,6.72
2019-04-04T02:12:18.007Z,6.77
2019-04-04T02:13:17.965Z,6.74
2019-04-04T02:14:19.526Z,6.70
2019-04-04T02:15:17.888Z,6.64
2019-04-04T02:16:17.842Z,6.69
2019-04-04T02:17:17.803Z,6.75
2019-04-04T02:18:17.760Z,6.67
2019-04-04T02:19:17.720Z,6.67
2019-04-04T02:20:17.679Z,6.69
2019-04-04T02:21:17.641Z,6.57
2019-04-04T02:22:17.598Z,6.60
2019-04-04T02:23:17.555Z,6.48
2019-04-04T02:24:17.514Z,6.52
2019-04-04T02:25:17.470Z,6.54
2019-04-04T02:26:17.428Z,6.62
2019-04-04T02:27:17.393Z,6.66
2019-04-04T02:28:17.351Z,6.64
2019-04-04T02:29:17.309Z,6.59
2019-04-04T02:30:17.263Z,6.62
2019-04-04T02:31:20.723Z,6.64
2019-04-04T02:32:17.185Z,6.57
2019-04-04T02:33:17.147Z,6.64
2019-04-04T02:34:17.103Z,6.52
2019-04-04T02:35:17.070Z,6.59
2019-04-04T02:36:17.484Z,6.60
2019-04-04T02:37:20.657Z,6.59
2019-04-04T02:38:16.934Z,6.60
2019-04-04T02:39:16.896Z,6.62
2019-04-04T02:40:16.856Z,6.60
2019-04-04T02:41:16.815Z,6.56
2019-04-04T02:42:20.939Z,6.57
2019-04-04T02:43:16.731Z,6.67
2019-04-04T02:44:16.687Z,6.66
2019-04-04T02:45:16.647Z,6.56
2019-04-04T02:46:16.607Z,6.59
2019-04-04T02:47:17.389Z,6.52
2019-04-04T02:48:16.524Z,6.59
2019-04-04T02:49:16.480Z,6.45
2019-04-04T02:50:16.440Z,6.39
2019-04-04T02:51:16.399Z,6.46
2019-04-04T02:52:16.358Z,6.33
2019-04-04T02:53:19.400Z,6.39
2019-04-04T02:54:16.276Z,6.28
2019-04-04T02:55:16.234Z,6.28
2019-04-04T02:56:16.191Z,6.27
2019-04-04T02:57:16.147Z,6.31
2019-04-04T02:58:16.107Z,6.33
2019-04-04T02:59:20.250Z,6.33
2019-04-04T03:00:16.029Z,6.24
2019-04-04T03:01:15.989Z,6.28
2019-04-04T03:02:15.941Z,6.30
2019-04-04T03:03:15.900Z,6.24
2019-04-04T03:04:15.861Z,6.26
2019-04-04T03:05:18.745Z,6.31
2019-04-04T03:06:15.783Z,6.27
2019-04-04T03:07:15.737Z,6.20
2019-04-04T03:08:15.698Z,6.17
2019-04-04T03:09:15.653Z,6.28
2019-04-04T03:10:16.675Z,6.27
2019-04-04T03:11:15.571Z,6.17
2019-04-04T03:12:15.538Z,6.08
2019-04-04T03:13:15.491Z,6.17
2019-04-04T03:14:15.447Z,6.17
2019-04-04T03:15:15.411Z,6.14
2019-04-04T03:16:15.363Z,6.16
2019-04-04T03:17:15.318Z,6.14
2019-04-04T03:18:15.296Z,6.14
2019-04-04T03:19:15.241Z,6.17
2019-04-04T03:20:23.845Z,6.14
2019-04-04T03:22:19.602Z,6.08
2019-04-04T03:23:19.527Z,6.08
2019-04-04T03:24:19.487Z,6.14
2019-04-04T03:37:45.974Z,5.97
2019-04-04T03:38:46.088Z,5.98
2019-04-04T03:39:42.457Z,6.04
2019-04-04T03:40:42.403Z,5.98
2019-04-04T03:41:42.365Z,5.98
2019-04-04T03:42:44.285Z,5.98
2019-04-04T03:43:42.267Z,6.11
2019-04-04T03:44:42.222Z,6.08
2019-04-04T03:45:42.177Z,6.17
2019-04-04T03:46:42.145Z,6.20
2019-04-04T03:47:44.519Z,6.16
2019-04-04T03:48:42.056Z,6.17
2019-04-04T03:49:42.013Z,6.14
2019-04-04T03:50:41.969Z,6.22
2019-04-04T03:51:41.924Z,6.27
2019-04-04T03:52:44.245Z,6.31
2019-04-04T03:53:41.844Z,6.30
2019-04-04T03:54:41.799Z,6.30
2019-04-04T03:55:41.754Z,6.36
2019-04-04T03:56:41.718Z,6.33
2019-04-04T03:57:41.671Z,6.38
2019-04-04T03:58:41.629Z,6.33
2019-04-04T03:59:41.589Z,6.33
2019-04-04T04:00:41.550Z,6.22
2019-04-04T04:01:45.199Z,6.24
2019-04-04T04:02:41.462Z,6.20
2019-04-04T04:03:41.418Z,6.14
2019-04-04T04:04:41.377Z,6.11
2019-04-04T04:05:41.341Z,6.09
2019-04-04T04:06:42.002Z,6.14
2019-04-04T04:07:41.257Z,6.17
2019-04-04T04:08:41.214Z,6.27
2019-04-04T04:09:41.166Z,6.26
2019-04-04T04:10:41.130Z,6.24
2019-04-04T04:11:41.114Z,6.09
2019-04-04T04:12:43.117Z,6.11
2019-04-04T04:13:41.003Z,6.19
2019-04-04T04:14:40.964Z,6.09
2019-04-04T04:15:40.918Z,6.16
2019-04-04T04:16:40.875Z,6.16
2019-04-04T04:17:45.017Z,6.11
2019-04-04T04:18:40.806Z,6.17
2019-04-04T04:19:40.751Z,6.24
2019-04-04T04:20:40.707Z,6.26
2019-04-04T04:21:42.727Z,6.26
2019-04-04T04:22:40.629Z,6.24
2019-04-04T04:23:40.612Z,6.30
2019-04-04T04:24:40.545Z,6.27
2019-04-04T04:25:40.500Z,6.31
2019-04-04T04:26:41.988Z,6.33
2019-04-04T04:27:40.420Z,6.28
2019-04-04T04:28:40.380Z,6.28
2019-04-04T04:29:40.337Z,6.26
2019-04-04T04:30:40.802Z,6.26
2019-04-04T04:31:40.251Z,6.30
2019-04-04T04:32:40.208Z,6.26
2019-04-04T04:33:40.164Z,6.24
2019-04-04T04:34:40.127Z,6.22
2019-04-04T04:35:41.993Z,6.27
2019-04-04T04:36:40.046Z,6.26
2019-04-04T04:37:40.003Z,6.28
2019-04-04T04:38:39.967Z,6.24
2019-04-04T04:39:41.359Z,6.22
2019-04-04T04:40:39.874Z,6.14
2019-04-04T04:41:39.839Z,6.16
2019-04-04T04:42:39.794Z,6.14
2019-04-04T04:43:39.759Z,6.17
2019-04-04T04:44:39.710Z,6.12
2019-04-04T04:45:43.876Z,6.12
2019-04-04T04:46:39.624Z,6.08
2019-04-04T04:47:39.584Z,6.09
2019-04-04T04:48:39.547Z,6.12
2019-04-04T04:49:39.504Z,6.16
2019-04-04T04:50:40.436Z,6.11
2019-04-04T04:51:43.225Z,6.20
2019-04-04T04:52:39.372Z,6.20
2019-04-04T04:53:39.329Z,6.20
2019-04-04T04:54:39.292Z,6.22
2019-04-04T04:55:39.256Z,6.24
2019-04-04T04:56:39.212Z,6.14
2019-04-04T04:57:39.163Z,6.20
2019-04-04T04:58:41.722Z,6.16
2019-04-04T04:59:39.085Z,6.17
2019-04-04T05:00:39.043Z,6.17
2019-04-04T05:01:40.583Z,6.19
2019-04-04T05:02:38.958Z,6.26
2019-04-04T05:03:38.914Z,6.12
2019-04-04T05:04:38.871Z,6.12
2019-04-04T05:05:38.829Z,6.11
2019-04-04T05:06:38.790Z,6.11
2019-04-04T05:07:39.115Z,5.99
2019-04-04T05:08:39.027Z,6.01
2019-04-04T05:09:38.666Z,6.09
2019-04-04T05:10:38.623Z,6.09
2019-04-04T05:11:38.582Z,6.14
2019-04-04T05:12:38.537Z,6.11
2019-04-04T05:13:38.499Z,6.05
2019-04-04T05:14:38.459Z,6.12
2019-04-04T05:15:38.414Z,6.05
2019-04-04T05:16:38.637Z,6.09
2019-04-04T05:17:41.677Z,6.08
2019-04-04T05:18:38.290Z,6.11
2019-04-04T05:19:38.248Z,6.12
2019-04-04T05:20:38.208Z,6.09
2019-04-04T05:21:38.179Z,6.04
2019-04-04T05:22:39.883Z,6.17
2019-04-04T05:23:38.095Z,6.16
2019-04-04T05:24:38.036Z,6.27
2019-04-04T05:25:50.563Z,6.17
2019-04-04T05:26:38.696Z,6.28
2019-04-04T05:27:37.981Z,6.27
2019-04-04T05:28:37.875Z,6.30
2019-04-04T05:29:37.827Z,6.36
2019-04-04T05:30:37.786Z,6.33
2019-04-04T05:31:37.747Z,6.31
2019-04-04T05:32:37.736Z,6.38
2019-04-04T05:33:37.665Z,6.42
2019-04-04T05:34:37.622Z,6.30
2019-04-04T05:35:37.858Z,6.36
2019-04-04T05:36:37.534Z,6.38
2019-04-04T05:37:38.254Z,6.35
2019-04-04T05:38:37.453Z,6.38
2019-04-04T05:39:37.416Z,6.27
2019-04-04T05:40:37.374Z,6.31
2019-04-04T05:41:37.517Z,6.24
2019-04-04T05:42:37.287Z,6.28
2019-04-04T05:43:37.554Z,6.22
2019-04-04T05:44:37.201Z,6.27
2019-04-04T05:45:37.168Z,6.27
2019-04-04T05:46:37.122Z,6.28
2019-04-04T05:47:37.078Z,6.20
2019-04-04T05:48:37.035Z,6.19
2019-04-04T05:49:38.220Z,6.27
2019-04-04T05:50:36.959Z,6.35
2019-04-04T05:51:36.977Z,6.30
2019-04-04T05:52:36.875Z,6.30
2019-04-04T05:53:36.832Z,6.30
2019-04-04T05:54:37.075Z,6.28
2019-04-04T05:55:36.753Z,6.31
2019-04-04T05:56:36.703Z,6.35
2019-04-04T05:57:36.673Z,6.35
2019-04-04T05:58:36.647Z,6.41
2019-04-04T05:59:36.581Z,6.39
2019-04-04T06:00:36.570Z,6.38
2019-04-04T06:01:36.493Z,6.42
2019-04-04T06:02:36.463Z,6.35
2019-04-04T06:03:36.428Z,6.46
2019-04-04T06:04:36.376Z,6.45
2019-04-04T06:05:36.346Z,6.51
2019-04-04T06:06:36.291Z,6.60
2019-04-04T06:07:36.470Z,6.62
2019-04-04T06:08:38.821Z,6.60
2019-04-04T06:09:36.163Z,6.52
2019-04-04T06:10:36.122Z,6.59
2019-04-04T06:11:36.086Z,6.60
2019-04-04T06:12:37.526Z,6.63
2019-04-04T06:13:36.001Z,6.63
2019-04-04T06:14:35.957Z,6.70
2019-04-04T06:15:35.914Z,6.74
2019-04-04T06:16:35.872Z,6.66
2019-04-04T06:17:38.759Z,6.75
2019-04-04T06:18:35.792Z,6.81
2019-04-04T06:19:35.750Z,6.77
2019-04-04T06:20:35.705Z,6.78
2019-04-04T06:21:35.694Z,6.78
2019-04-04T06:22:35.625Z,6.79
2019-04-04T06:23:35.590Z,6.87
2019-04-04T06:24:35.546Z,6.85
2019-04-04T06:25:35.861Z,6.87
2019-04-04T06:26:36.034Z,6.81
2019-04-04T06:27:35.417Z,6.88
2019-04-04T06:28:35.386Z,6.85
2019-04-04T06:29:35.334Z,6.74
2019-04-04T06:30:42.993Z,6.78
2019-04-04T06:31:35.256Z,6.79
2019-04-04T06:32:35.214Z,6.84
2019-04-04T06:33:35.378Z,6.81
2019-04-04T06:34:35.127Z,6.84
2019-04-04T06:35:35.125Z,6.81
2019-04-04T06:36:35.049Z,6.92
2019-04-04T06:37:35.008Z,6.92
2019-04-04T06:38:34.972Z,6.89
2019-04-04T06:39:34.943Z,7.00
2019-04-04T06:40:34.879Z,7.03
2019-04-04T06:41:34.837Z,6.99
2019-04-04T06:42:36.064Z,7.03
2019-04-04T06:43:34.758Z,7.03
2019-04-04T06:44:34.719Z,7.03
2019-04-04T06:45:34.677Z,7.11
2019-04-04T06:46:34.637Z,7.02
2019-04-04T06:47:34.593Z,7.03
2019-04-04T06:48:34.550Z,7.10
2019-04-04T06:49:35.585Z,7.15
2019-04-04T06:50:34.473Z,7.14
2019-04-04T06:51:34.432Z,7.14
2019-04-04T06:52:34.384Z,7.13
2019-04-04T06:53:34.344Z,7.18
2019-04-04T06:54:34.302Z,7.23
2019-04-04T06:55:38.483Z,7.20
2019-04-04T06:56:34.227Z,7.20
2019-04-04T06:57:36.471Z,7.31
2019-04-04T06:58:34.140Z,7.28
2019-04-04T06:59:34.317Z,7.31
2019-04-04T07:00:34.055Z,7.15
2019-04-04T07:01:34.013Z,7.29
2019-04-04T07:02:33.977Z,7.29
2019-04-04T07:03:33.935Z,7.29
2019-04-04T07:04:36.001Z,7.29
2019-04-04T07:05:33.850Z,7.23
2019-04-04T07:06:33.810Z,7.15
2019-04-04T07:07:33.771Z,7.23
2019-04-04T07:08:33.732Z,7.23
2019-04-04T07:09:33.689Z,7.15
2019-04-04T07:10:33.647Z,7.18
2019-04-04T07:11:35.198Z,7.25
2019-04-04T07:12:33.562Z,7.35
2019-04-04T07:13:42.335Z,7.31
2019-04-04T07:14:45.188Z,7.32
2019-04-04T07:15:45.864Z,7.40
2019-04-04T07:16:36.223Z,7.29
2019-04-04T07:17:33.363Z,7.39
2019-04-04T07:18:33.319Z,7.38
2019-04-04T07:19:33.278Z,7.33
2019-04-04T07:20:33.235Z,7.40
2019-04-04T07:21:33.199Z,7.48
2019-04-04T07:22:33.158Z,7.47
2019-04-04T07:23:33.114Z,7.47
2019-04-04T07:24:33.071Z,7.47
2019-04-04T07:25:35.730Z,7.43
2019-04-04T07:26:32.997Z,7.47
2019-04-04T07:27:32.952Z,7.50
2019-04-04T07:28:32.914Z,7.48
2019-04-04T07:29:32.872Z,7.48
2019-04-04T07:30:32.831Z,7.54
2019-04-04T07:31:33.519Z,7.53
2019-04-04T07:32:32.744Z,7.58
2019-04-04T07:33:32.703Z,7.63
2019-04-04T07:34:32.665Z,7.63
2019-04-04T07:35:32.626Z,7.54
2019-04-04T07:36:32.589Z,7.63
2019-04-04T07:37:32.539Z,7.57
2019-04-04T07:38:34.915Z,7.58
2019-04-04T07:39:32.858Z,7.60
2019-04-04T07:40:36.018Z,7.57
2019-04-04T07:41:32.383Z,7.56
2019-04-04T07:42:32.344Z,7.66
2019-04-04T07:43:32.296Z,7.73
2019-04-04T07:44:32.255Z,7.66
2019-04-04T07:45:32.214Z,7.73
2019-04-04T07:46:32.175Z,7.67
2019-04-04T07:47:32.139Z,7.70
2019-04-04T07:48:32.098Z,7.63
2019-04-04T07:49:32.056Z,7.60
2019-04-04T07:50:32.015Z,7.66
2019-04-04T07:51:31.977Z,7.58
2019-04-04T07:52:33.120Z,7.53
2019-04-04T07:53:31.894Z,7.58
2019-04-04T07:54:32.129Z,7.67
2019-04-04T07:55:31.810Z,7.58
2019-04-04T07:56:31.773Z,7.54
2019-04-04T07:57:31.731Z,7.57
2019-04-04T07:58:31.687Z,7.58
2019-04-04T07:59:31.649Z,7.63
2019-04-04T08:00:31.610Z,7.66
2019-04-04T08:01:31.569Z,7.66
2019-04-04T08:02:31.527Z,7.60
2019-04-04T08:03:31.483Z,7.63
2019-04-04T08:04:31.442Z,7.57
2019-04-04T08:05:31.402Z,7.61
2019-04-04T08:06:31.361Z,7.66
2019-04-04T08:07:31.323Z,7.56
2019-04-04T08:08:31.285Z,7.63
2019-04-04T08:09:31.239Z,7.69
2019-04-04T08:10:31.199Z,7.70
2019-04-04T08:11:31.161Z,7.75
2019-04-04T08:12:31.122Z,7.80
2019-04-04T08:13:31.082Z,7.77
2019-04-04T08:14:31.039Z,7.82
2019-04-04T08:15:30.997Z,7.75
2019-04-04T08:16:30.957Z,7.79
2019-04-04T08:17:30.913Z,7.75
2019-04-04T08:18:30.876Z,7.80
2019-04-04T08:19:30.835Z,7.72
2019-04-04T08:20:30.796Z,7.69
2019-04-04T08:21:30.754Z,7.79
2019-04-04T08:22:30.712Z,7.72
2019-04-04T08:23:30.673Z,7.82
2019-04-04T08:24:30.632Z,7.83
2019-04-04T08:25:30.592Z,7.70
2019-04-04T08:26:30.551Z,7.72
2019-04-04T08:27:30.509Z,7.70
2019-04-04T08:28:30.472Z,7.69
2019-04-04T08:29:30.424Z,7.69
2019-04-04T08:30:30.388Z,7.72
2019-04-04T08:31:30.359Z,7.63
2019-04-04T08:32:30.310Z,7.76
2019-04-04T08:33:30.267Z,7.73
2019-04-04T08:34:30.227Z,7.93
2019-04-04T08:35:30.183Z,7.87
2019-04-04T08:36:30.142Z,7.94
2019-04-04T08:37:30.100Z,8.00
2019-04-04T08:38:30.059Z,8.08
2019-04-04T08:39:30.024Z,8.08
2019-04-04T08:40:29.983Z,8.08
2019-04-04T08:41:29.941Z,8.06
2019-04-04T08:42:29.897Z,8.03
2019-04-04T08:43:29.859Z,8.00
2019-04-04T08:44:29.820Z,8.05
2019-04-04T08:45:29.792Z,8.06
2019-04-04T08:46:29.740Z,7.94
2019-04-04T08:47:29.695Z,7.94
2019-04-04T08:48:29.655Z,7.88
2019-04-04T08:49:29.615Z,7.85
2019-04-04T08:50:29.573Z,7.93
2019-04-04T08:51:29.538Z,7.85
2019-04-04T08:52:29.496Z,7.80
2019-04-04T08:53:39.381Z,7.80
2019-04-04T08:54:29.417Z,7.87
2019-04-04T08:55:29.371Z,7.85
2019-04-04T08:56:29.338Z,7.88
2019-04-04T08:57:29.300Z,7.97
2019-04-04T08:58:29.256Z,7.97
2019-04-04T08:59:29.209Z,7.95
2019-04-04T09:00:29.170Z,7.93
2019-04-04T09:01:29.129Z,7.88
2019-04-04T09:02:29.088Z,7.95
2019-04-04T09:03:29.053Z,8.05
2019-04-04T09:04:29.012Z,8.05
2019-04-04T09:05:28.970Z,8.06
2019-04-04T09:06:28.932Z,8.00
2019-04-04T09:07:28.886Z,8.13
2019-04-04T09:08:28.848Z,8.16
2019-04-04T09:09:28.868Z,8.16
2019-04-04T09:10:28.771Z,8.23
2019-04-04T09:11:28.731Z,8.19
2019-04-04T09:12:28.688Z,8.23
2019-04-04T09:13:28.648Z,8.24
2019-04-04T09:14:28.603Z,8.30
2019-04-04T09:15:28.570Z,8.34
2019-04-04T09:16:28.527Z,8.42
2019-04-04T09:17:28.486Z,8.37
2019-04-04T09:18:28.448Z,8.44
2019-04-04T09:19:28.402Z,8.42
2019-04-04T09:20:37.043Z,8.46
2019-04-04T09:22:32.788Z,8.13
2019-04-04T09:23:32.720Z,8.08
2019-04-04T09:24:32.682Z,8.10
2019-04-04T09:25:32.645Z,8.16
2019-04-04T09:26:32.598Z,8.20
2019-04-04T09:27:32.554Z,8.18
2019-04-04T09:28:32.521Z,8.20
2019-04-04T09:29:32.477Z,8.27
2019-04-04T09:30:32.440Z,8.23
2019-04-04T09:31:32.399Z,8.26
2019-04-04T09:32:32.353Z,8.23
2019-04-04T09:33:32.315Z,8.20
2019-04-04T09:34:32.276Z,8.27
2019-04-04T09:35:32.237Z,8.15
2019-04-04T09:36:32.198Z,8.20
2019-04-04T09:37:32.157Z,8.20
2019-04-04T09:51:16.084Z,8.37
2019-04-04T09:52:16.013Z,8.36
2019-04-04T09:53:15.970Z,8.46
2019-04-04T09:54:15.924Z,8.33
2019-04-04T09:55:15.886Z,8.42
2019-04-04T09:56:15.841Z,8.48
2019-04-04T09:57:15.796Z,8.58
2019-04-04T09:58:15.755Z,8.61
2019-04-04T09:59:15.712Z,8.61
2019-04-04T10:00:15.668Z,8.63
2019-04-04T10:01:15.631Z,8.56
2019-04-04T10:02:15.594Z,8.48
2019-04-04T10:03:15.544Z,8.53
2019-04-04T10:04:15.503Z,8.51
2019-04-04T10:05:15.461Z,8.51
2019-04-04T10:06:15.423Z,8.56
2019-04-04T10:07:15.383Z,8.55
2019-04-04T10:08:15.344Z,8.58
2019-04-04T10:09:16.345Z,8.51
2019-04-04T10:10:15.259Z,8.53
2019-04-04T10:11:15.215Z,8.42
2019-04-04T10:12:15.175Z,8.36
2019-04-04T10:13:15.134Z,8.31
2019-04-04T10:14:15.101Z,8.44
2019-04-04T10:15:15.059Z,8.41
2019-04-04T10:16:15.016Z,8.51
2019-04-04T10:17:14.973Z,8.36
2019-04-04T10:18:14.932Z,8.45
2019-04-04T10:19:14.895Z,8.44
2019-04-04T10:20:14.852Z,8.51
2019-04-04T10:21:14.813Z,8.58
2019-04-04T10:22:14.773Z,8.58
2019-04-04T10:23:14.728Z,8.46
2019-04-04T10:24:14.689Z,8.48
2019-04-04T10:25:14.651Z,8.44
2019-04-04T10:26:14.610Z,8.48
2019-04-04T10:27:14.576Z,8.45
2019-04-04T10:28:14.545Z,8.55
2019-04-04T10:29:14.491Z,8.42
2019-04-04T10:30:14.449Z,8.48
2019-04-04T10:31:14.405Z,8.45
2019-04-04T10:32:14.366Z,8.38
2019-04-04T10:33:14.328Z,8.36
2019-04-04T10:34:14.288Z,8.36
2019-04-04T10:35:14.247Z,8.38
2019-04-04T10:36:14.206Z,8.33
2019-04-04T10:37:14.165Z,8.44
2019-04-04T10:38:14.129Z,8.36
2019-04-04T10:39:14.090Z,8.38
2019-04-04T10:40:14.048Z,8.41
2019-04-04T10:41:14.005Z,8.31
2019-04-04T10:42:13.966Z,8.27
2019-04-04T10:43:13.922Z,8.23
2019-04-04T10:44:13.883Z,8.20
2019-04-04T10:45:13.844Z,8.16
2019-04-04T10:46:13.801Z,8.20
2019-04-04T10:47:13.766Z,8.28
2019-04-04T10:48:13.725Z,8.27
2019-04-04T10:49:13.683Z,8.31
2019-04-04T10:50:13.639Z,8.30
2019-04-04T10:51:13.605Z,8.42
2019-04-04T10:52:13.563Z,8.34
2019-04-04T10:53:13.522Z,8.31
2019-04-04T10:54:13.485Z,8.38
2019-04-04T10:55:13.440Z,8.41
2019-04-04T10:56:13.401Z,8.51
2019-04-04T10:57:13.359Z,8.44
2019-04-04T10:58:13.317Z,8.48
2019-04-04T10:59:13.287Z,8.46
2019-04-04T11:00:13.244Z,8.46
2019-04-04T11:01:13.202Z,8.37
2019-04-04T11:02:13.163Z,8.45
2019-04-04T11:03:13.115Z,8.41
2019-04-04T11:04:13.078Z,8.52
2019-04-04T11:05:13.040Z,8.55
2019-04-04T11:06:13.000Z,8.63
2019-04-04T11:07:12.957Z,8.60
2019-04-04T11:08:12.915Z,8.60
2019-04-04T11:09:12.876Z,8.63
2019-04-04T11:10:12.833Z,8.67
2019-04-04T11:11:12.802Z,8.53
2019-04-04T11:12:12.758Z,8.58
2019-04-04T11:13:12.718Z,8.52
2019-04-04T11:14:12.677Z,8.56
2019-04-04T11:15:12.631Z,8.56
2019-04-04T11:16:12.594Z,8.60
2019-04-04T11:17:12.555Z,8.60
2019-04-04T11:18:12.514Z,8.63
2019-04-04T11:19:12.481Z,8.67
2019-04-04T11:20:12.434Z,8.61
2019-04-04T11:21:12.392Z,8.64
2019-04-04T11:22:12.350Z,8.55
2019-04-04T11:23:12.315Z,8.46
2019-04-04T11:24:12.277Z,8.51
2019-04-04T11:25:12.239Z,8.37
2019-04-04T11:26:12.201Z,8.37
2019-04-04T11:27:12.149Z,8.37
2019-04-04T11:28:12.115Z,8.38
2019-04-04T11:29:12.071Z,8.37
2019-04-04T11:30:12.028Z,8.37
2019-04-04T11:31:11.993Z,8.30
2019-04-04T11:32:11.952Z,8.45
2019-04-04T11:33:12.347Z,8.38
2019-04-04T11:34:11.873Z,8.44
2019-04-04T11:35:11.830Z,8.44
2019-04-04T11:36:11.789Z,8.49
2019-04-04T11:37:11.759Z,8.55
2019-04-04T11:38:11.712Z,8.58
2019-04-04T11:39:11.666Z,8.63
2019-04-04T11:40:11.632Z,8.70
2019-04-04T11:41:11.593Z,8.53
2019-04-04T11:42:11.545Z,8.60
2019-04-04T11:43:11.510Z,8.66
2019-04-04T11:44:11.470Z,8.64
2019-04-04T11:45:11.474Z,8.60
2019-04-04T11:46:11.391Z,8.58
2019-04-04T11:47:11.344Z,8.61
2019-04-04T11:48:11.309Z,8.63
2019-04-04T11:49:11.267Z,8.61
2019-04-04T11:50:11.224Z,8.67
2019-04-04T11:51:11.192Z,8.70
2019-04-04T11:52:11.150Z,8.63
2019-04-04T11:53:11.104Z,8.71
2019-04-04T11:54:11.061Z,8.73
2019-04-04T11:55:11.029Z,8.78
2019-04-04T11:56:10.985Z,8.78
2019-04-04T11:57:10.947Z,8.78
2019-04-04T11:58:10.905Z,8.82
2019-04-04T11:59:10.864Z,8.79
2019-04-04T12:00:10.823Z,8.84
2019-04-04T12:01:10.782Z,8.85
2019-04-04T12:02:10.741Z,8.79
2019-04-04T12:03:10.707Z,8.91
2019-04-04T12:04:10.664Z,8.81
2019-04-04T12:05:10.631Z,8.84
2019-04-04T12:06:10.592Z,8.85
2019-04-04T12:07:10.540Z,8.88
2019-04-04T12:08:10.502Z,8.87
2019-04-04T12:09:10.463Z,8.79
2019-04-04T12:10:10.425Z,8.78
2019-04-04T12:11:10.380Z,8.81
2019-04-04T12:12:10.342Z,8.81
2019-04-04T12:13:10.303Z,8.79
2019-04-04T12:14:10.259Z,8.78
2019-04-04T12:15:10.289Z,8.73
2019-04-04T12:16:10.182Z,8.67
2019-04-04T12:17:10.143Z,8.67
2019-04-04T12:18:10.105Z,8.66
2019-04-04T12:19:10.060Z,8.64
2019-04-04T12:20:10.019Z,8.55
2019-04-04T12:21:09.981Z,8.71
2019-04-04T12:22:11.758Z,8.63
2019-04-04T12:23:09.906Z,8.56
2019-04-04T12:24:09.863Z,8.49
2019-04-04T12:25:09.823Z,8.49
2019-04-04T12:26:09.778Z,8.46
2019-04-04T12:27:09.743Z,8.44
2019-04-04T12:28:09.706Z,8.42
2019-04-04T12:29:09.663Z,8.41
2019-04-04T12:30:09.623Z,8.42
2019-04-04T12:31:09.577Z,8.33
2019-04-04T12:32:09.538Z,8.36
2019-04-04T12:33:09.499Z,8.38
2019-04-04T12:34:09.458Z,8.41
2019-04-04T12:35:09.422Z,8.33
2019-04-04T12:36:09.382Z,8.41
2019-04-04T12:37:09.340Z,8.34
2019-04-04T12:38:09.301Z,8.48
2019-04-04T12:39:09.256Z,8.36
2019-04-04T12:40:19.720Z,8.37
2019-04-04T12:41:09.180Z,8.37
2019-04-04T12:42:09.140Z,8.28
2019-04-04T12:43:09.097Z,8.28
2019-04-04T12:44:09.056Z,8.16
2019-04-04T12:45:09.019Z,8.23
2019-04-04T12:46:08.973Z,8.20
2019-04-04T12:47:08.941Z,8.23
2019-04-04T12:48:09.215Z,8.20
2019-04-04T12:49:08.858Z,8.16
2019-04-04T12:50:08.818Z,8.19
2019-04-04T12:51:08.780Z,8.24
2019-04-04T12:52:08.738Z,8.26
2019-04-04T12:53:08.693Z,8.19
2019-04-04T12:54:08.657Z,8.26
2019-04-04T12:55:08.618Z,8.34
2019-04-04T12:56:08.573Z,8.33
2019-04-04T12:57:08.531Z,8.36
2019-04-04T12:58:10.749Z,8.44
2019-04-04T12:59:08.460Z,8.36
2019-04-04T13:00:08.412Z,8.49
2019-04-04T13:01:08.372Z,8.41
2019-04-04T13:02:08.337Z,8.42
2019-04-04T13:03:08.288Z,8.45
2019-04-04T13:04:08.254Z,8.45
2019-04-04T13:05:08.210Z,8.49
2019-04-04T13:06:08.175Z,8.49
2019-04-04T13:07:08.126Z,8.58
2019-04-04T13:08:08.089Z,8.58
2019-04-04T13:09:08.047Z,8.61
2019-04-04T13:10:11.840Z,8.66
2019-04-04T13:11:07.971Z,8.49
2019-04-04T13:12:07.928Z,8.66
2019-04-04T13:13:07.885Z,8.69
2019-04-04T13:14:07.843Z,8.70
2019-04-04T13:15:07.812Z,8.69
2019-04-04T13:16:07.770Z,8.71
2019-04-04T13:17:07.728Z,8.71
2019-04-04T13:18:07.687Z,8.56
2019-04-04T13:19:07.642Z,8.76
2019-04-04T13:20:07.603Z,8.73
2019-04-04T13:21:07.563Z,8.82
2019-04-04T13:22:07.579Z,8.71
2019-04-04T13:23:07.488Z,8.73
2019-04-04T13:24:07.446Z,8.69
2019-04-04T13:25:07.405Z,8.67
2019-04-04T13:26:07.369Z,8.66
2019-04-04T13:27:07.320Z,8.70
2019-04-04T13:28:07.286Z,8.74
2019-04-04T13:29:07.244Z,8.73
2019-04-04T13:30:07.205Z,8.73
2019-04-04T13:31:07.162Z,8.76
2019-04-04T13:32:07.123Z,8.76
2019-04-04T13:33:07.080Z,8.71
2019-04-04T13:34:07.049Z,8.76
2019-04-04T13:35:07.007Z,8.64
2019-04-04T13:36:06.965Z,8.67
2019-04-04T13:37:06.926Z,8.55
2019-04-04T13:38:06.883Z,8.66
2019-04-04T13:39:06.846Z,8.60
2019-04-04T13:40:06.800Z,8.66
2019-04-04T13:41:06.763Z,8.67
2019-04-04T13:42:06.717Z,8.69
2019-04-04T13:43:06.684Z,8.67
2019-04-04T13:44:06.642Z,8.69
2019-04-04T13:45:06.602Z,8.70